KLHM/LHM METAR and TAF weather

Enter ICAO airport designator
Station Type Date Time Source
KLHM METAR 2019/02/20 17:35 UTC NOAA

KLHM 201735Z AUTO 16012KT 10SM OVC080 08/02 A2993 RMK AO1


Station Type Date Time Source
KLHM Decoded METAR 2019/02/20 17:35 UTC NOAA

Station name not available
Feb 20, 2019 - 12:35 PM EST / 2019.02.20 1735 UTC
Wind: from the SSE (160 degrees) at 14 MPH (12 KT):0
Visibility: 10 mile(s):0
Sky conditions: overcast
Temperature: 46 F (8 C)
Dew Point: 35 F (2 C)
Relative Humidity: 65%
Pressure (altimeter): 29.93 in. Hg (1013 hPa)
ob: KLHM 201735Z AUTO 16012KT 10SM OVC080 08/02 A2993 RMK AO1
cycle: 17

Station Type Date Time Source
KLHM TAF UTC NOAA

Error!


Example: see airport list